Time;durP1;ratioP1;P1;durP2;ratioP2;P2;SDS_P1;SDS_P2;PMS_P1;PMS_P2;Temp;Humidity;BMP_temperature;BMP_pressure;BME280_temperature;BME280_humidity;BME280_pressure;Samples;Min_cycle;Max_cycle;Signal;HPM_P1;HPM_P2
2021/08/07 00:02:21;;;;;;;3.03;1.00;;;;;;;15.83;69.45;96000.19;5052972;28;20072;-74
2021/08/07 00:04:48;;;;;;;2.38;0.93;;;;;;;15.77;69.59;95993.25;5053284;28;20049;-74
2021/08/07 00:07:17;;;;;;;1.88;0.80;;;;;;;15.74;69.39;95997.13;5053200;28;20503;-74
2021/08/07 00:09:45;;;;;;;3.55;1.20;;;;;;;15.72;69.61;95988.66;5053390;28;20422;-74
2021/08/07 00:12:12;;;;;;;2.20;1.00;;;;;;;15.71;69.75;95991.50;5053073;28;20057;-74
2021/08/07 00:14:40;;;;;;;1.42;1.02;;;;;;;15.68;69.54;95984.88;5053106;28;20048;-74
2021/08/07 00:17:07;;;;;;;3.50;1.58;;;;;;;15.66;69.79;95986.91;5053239;28;20061;-74
2021/08/07 00:19:36;;;;;;;6.18;1.35;;;;;;;15.62;69.43;95983.13;5053001;28;20049;-74
2021/08/07 00:22:04;;;;;;;3.88;1.17;;;;;;;15.61;69.92;95982.34;5053082;28;20049;-74
2021/08/07 00:24:33;;;;;;;3.72;1.00;;;;;;;15.59;69.62;95989.66;5053085;28;20041;-74
2021/08/07 00:27:00;;;;;;;4.15;1.20;;;;;;;15.57;69.67;95981.19;5075148;28;20056;-74
2021/08/07 00:29:34;;;;;;;3.58;1.27;;;;;;;15.55;69.59;95972.75;5076453;28;20043;-74
2021/08/07 00:32:02;;;;;;;2.83;1.20;;;;;;;15.52;69.58;95977.66;5071362;28;20051;-74
2021/08/07 00:34:29;;;;;;;5.70;1.25;;;;;;;15.50;69.71;95975.22;5053827;28;20049;-74
2021/08/07 00:36:57;;;;;;;1.65;1.10;;;;;;;15.48;69.70;95972.06;5053431;28;20049;-74
2021/08/07 00:39:24;;;;;;;2.42;0.93;;;;;;;15.45;69.83;95980.38;5053359;28;20049;-74
2021/08/07 00:41:53;;;;;;;3.53;0.82;;;;;;;15.44;69.94;95976.16;5052775;28;20049;-74
2021/08/07 00:44:21;;;;;;;1.45;0.70;;;;;;;15.41;69.68;95984.50;5052529;28;20556;-74
2021/08/07 00:46:48;;;;;;;1.98;0.90;;;;;;;15.39;69.99;95978.66;5052573;28;20053;-74
2021/08/07 00:49:16;;;;;;;1.48;0.60;;;;;;;15.35;69.96;95980.13;5052831;28;20057;-74
2021/08/07 00:51:44;;;;;;;2.35;0.80;;;;;;;15.35;70.02;95978.31;5052749;28;20053;-74
2021/08/07 00:54:12;;;;;;;1.63;1.00;;;;;;;15.38;70.09;95971.81;5052468;28;20056;-74
2021/08/07 00:56:40;;;;;;;1.58;0.80;;;;;;;15.40;70.82;95970.56;5052452;28;20549;-74
2021/08/07 00:59:08;;;;;;;3.10;1.05;;;;;;;15.46;70.58;95974.13;5052458;28;20521;-74
2021/08/07 01:01:40;;;;;;;2.72;1.10;;;;;;;15.51;71.20;95970.81;5052137;28;20053;-74
2021/08/07 01:04:12;;;;;;;2.92;0.90;;;;;;;15.58;71.04;95971.47;5052292;28;20336;-74
2021/08/07 01:06:46;;;;;;;1.85;1.17;;;;;;;15.60;70.07;95969.44;5052492;28;20403;-74
2021/08/07 01:09:22;;;;;;;1.55;0.85;;;;;;;15.66;71.59;95971.94;5052298;28;20059;-74
2021/08/07 01:11:55;;;;;;;2.85;1.13;;;;;;;15.71;69.91;95965.19;5052049;28;20549;-74
2021/08/07 01:14:31;;;;;;;12.25;1.58;;;;;;;15.72;69.69;95972.06;5051687;28;20056;-74
2021/08/07 01:17:01;;;;;;;2.38;0.80;;;;;;;15.72;69.57;95966.81;5052360;28;20144;-74
2021/08/07 01:19:37;;;;;;;1.17;0.90;;;;;;;15.71;69.32;95965.19;5052196;28;20055;-74
2021/08/07 01:22:05;;;;;;;3.17;0.82;;;;;;;15.71;69.43;95952.06;5052077;28;20065;-75
2021/08/07 01:24:37;;;;;;;7.00;1.23;;;;;;;15.72;69.43;95953.66;5051608;28;20495;-74
2021/08/07 01:27:18;;;;;;;1.40;1.00;;;;;;;15.71;69.72;95959.94;5052367;28;20140;-74
2021/08/07 01:29:46;;;;;;;4.65;1.13;;;;;;;15.68;69.75;95958.56;5052151;28;20056;-74
2021/08/07 01:32:14;;;;;;;2.22;0.77;;;;;;;15.66;69.60;95958.00;5051910;28;20060;-74
2021/08/07 01:34:43;;;;;;;1.60;1.08;;;;;;;15.68;69.54;95968.25;5051699;28;20052;-74
2021/08/07 01:37:10;;;;;;;2.60;0.90;;;;;;;15.72;69.53;95956.28;5051931;28;20095;-74
2021/08/07 01:39:43;;;;;;;3.45;0.70;;;;;;;15.76;69.55;95944.28;5052071;28;20053;-74
2021/08/07 01:42:12;;;;;;;2.13;0.60;;;;;;;15.80;69.85;95942.81;5086957;22;20059;-78
2021/08/07 01:44:40;;;;;;;5.72;0.95;;;;;;;15.83;69.43;95950.22;5072034;28;20053;-78
2021/08/07 01:47:10;;;;;;;2.28;1.13;;;;;;;15.85;69.29;95941.09;5072537;28;20049;-78
2021/08/07 01:49:46;;;;;;;1.48;0.82;;;;;;;15.90;70.05;95937.78;5072520;28;20521;-78
2021/08/07 01:52:19;;;;;;;3.67;1.30;;;;;;;15.93;70.28;95939.91;5072592;28;20060;-78
2021/08/07 01:54:50;;;;;;;3.03;1.00;;;;;;;15.98;72.33;95944.50;5072508;28;20487;-78
2021/08/07 01:57:22;;;;;;;3.08;1.15;;;;;;;15.99;69.78;95931.13;5072427;28;20048;-78
2021/08/07 01:59:51;;;;;;;5.40;1.27;;;;;;;15.98;69.46;95924.25;5072693;28;20052;-78
2021/08/07 02:02:20;;;;;;;2.70;1.20;;;;;;;15.97;69.08;95914.75;5072537;28;20059;-77
2021/08/07 02:04:48;;;;;;;1.52;0.93;;;;;;;15.92;69.34;95919.94;5072440;28;20072;-78
2021/08/07 02:07:17;;;;;;;2.50;0.93;;;;;;;15.89;69.37;95906.44;5072704;28;20045;-78
2021/08/07 02:09:45;;;;;;;4.05;1.30;;;;;;;15.84;69.50;95907.91;5072450;28;20075;-78
2021/08/07 02:12:15;;;;;;;6.07;1.40;;;;;;;15.78;69.78;95921.19;5075126;28;20053;-78
2021/08/07 02:14:44;;;;;;;3.00;1.23;;;;;;;15.74;69.87;95922.69;5072458;28;20057;-78
2021/08/07 02:17:13;;;;;;;2.60;1.15;;;;;;;15.70;69.83;95922.34;5072205;28;20055;-78
2021/08/07 02:19:41;;;;;;;2.55;1.00;;;;;;;15.66;69.88;95914.09;5072364;28;20055;-78
2021/08/07 02:22:09;;;;;;;2.50;1.13;;;;;;;15.64;70.06;95913.53;5071980;28;20053;-78
2021/08/07 02:24:37;;;;;;;1.95;1.33;;;;;;;15.62;70.17;95905.06;5072010;28;20048;-78
2021/08/07 02:27:05;;;;;;;9.13;1.60;;;;;;;15.59;70.42;95884.50;5076106;28;20052;-79
2021/08/07 02:29:34;;;;;;;3.13;0.98;;;;;;;15.56;70.76;95890.22;5075410;28;20048;-78
2021/08/07 02:32:04;;;;;;;1.83;1.10;;;;;;;15.59;71.78;95909.97;5075303;28;20059;-78
2021/08/07 02:34:33;;;;;;;2.03;1.00;;;;;;;15.65;72.06;95920.41;5075136;28;20079;-78
2021/08/07 02:37:01;;;;;;;2.35;1.25;;;;;;;15.71;71.44;95918.69;5075467;28;20052;-78
2021/08/07 02:39:28;;;;;;;1.38;1.10;;;;;;;15.72;70.94;95908.97;5075066;28;20053;-78
2021/08/07 02:41:57;;;;;;;1.40;1.10;;;;;;;15.68;70.80;95892.84;5074926;28;20056;-78
2021/08/07 02:44:25;;;;;;;4.28;1.20;;;;;;;15.63;70.64;95893.53;5075156;28;20060;-78
2021/08/07 02:46:53;;;;;;;1.02;0.80;;;;;;;15.59;70.79;95886.31;5075281;28;20498;-78
2021/08/07 02:49:23;;;;;;;2.80;1.38;;;;;;;15.57;71.00;95881.31;5075548;28;20052;-78
2021/08/07 02:51:52;;;;;;;5.57;1.48;;;;;;;15.54;70.98;95889.63;5075188;28;20052;-78
2021/08/07 02:54:19;;;;;;;9.07;1.63;;;;;;;15.53;70.99;95882.00;5075129;28;20085;-78
2021/08/07 02:56:47;;;;;;;1.65;1.00;;;;;;;15.52;71.13;95880.38;5075477;28;20045;-78
2021/08/07 02:59:15;;;;;;;2.75;1.40;;;;;;;15.49;71.15;95881.66;5075550;28;20063;-78
2021/08/07 03:01:44;;;;;;;2.70;1.08;;;;;;;15.47;71.33;95888.97;5075273;28;20060;-78
2021/08/07 03:04:12;;;;;;;2.90;1.42;;;;;;;15.43;71.17;95890.44;5075074;28;20127;-78
2021/08/07 03:06:41;;;;;;;3.30;1.23;;;;;;;15.42;71.39;95878.34;5075189;28;20044;-78
2021/08/07 03:09:08;;;;;;;1.50;1.00;;;;;;;15.42;71.65;95875.72;5075284;28;20045;-78
2021/08/07 03:11:37;;;;;;;1.98;1.38;;;;;;;15.38;71.56;95878.00;5075359;28;20056;-78
2021/08/07 03:14:05;;;;;;;2.17;1.25;;;;;;;15.36;71.56;95882.69;5074912;28;20056;-78
2021/08/07 03:16:32;;;;;;;1.45;0.93;;;;;;;15.33;71.79;95877.91;5074771;28;20525;-77
2021/08/07 03:19:00;;;;;;;3.47;1.33;;;;;;;15.38;72.74;95871.94;5082627;28;20067;-78
2021/08/07 03:21:27;;;;;;;2.67;1.70;;;;;;;15.40;71.77;95872.53;5075219;28;20048;-78
2021/08/07 03:23:56;;;;;;;5.90;1.33;;;;;;;15.39;71.75;95878.78;5074962;28;20056;-77
2021/08/07 03:26:23;;;;;;;3.28;1.33;;;;;;;15.38;71.78;95877.22;5075224;28;20414;-78
2021/08/07 03:28:51;;;;;;;3.97;1.30;;;;;;;15.35;71.88;95875.84;5075156;28;20057;-78
2021/08/07 03:31:19;;;;;;;1.73;1.25;;;;;;;15.36;71.71;95874.00;5075084;28;20051;-78
2021/08/07 03:33:47;;;;;;;3.13;1.45;;;;;;;15.37;71.88;95883.47;5075117;28;20052;-78
2021/08/07 03:36:14;;;;;;;2.58;1.40;;;;;;;15.37;71.59;95875.59;5074239;28;20048;-78
2021/08/07 03:38:42;;;;;;;5.28;1.23;;;;;;;15.36;71.67;95866.13;5075176;28;20079;-78
2021/08/07 03:41:10;;;;;;;2.55;1.50;;;;;;;15.36;71.67;95879.25;5074376;28;20052;-78
2021/08/07 03:43:38;;;;;;;2.58;1.33;;;;;;;15.35;71.78;95861.88;5094267;28;20045;-77
2021/08/07 03:46:05;;;;;;;2.65;1.20;;;;;;;15.37;72.36;95851.94;5091223;28;20051;-78
2021/08/07 03:48:33;;;;;;;3.55;1.40;;;;;;;15.39;71.94;95848.09;5088587;28;20094;-78
2021/08/07 03:51:00;;;;;;;3.30;1.48;;;;;;;15.40;71.79;95844.41;5076184;28;20045;-78
2021/08/07 03:53:28;;;;;;;3.03;1.50;;;;;;;15.44;72.80;95842.13;5075161;28;20052;-78
2021/08/07 03:55:55;;;;;;;2.30;1.35;;;;;;;15.50;72.89;95851.69;5075051;28;20045;-78
2021/08/07 03:58:24;;;;;;;2.97;1.50;;;;;;;15.57;72.57;95856.84;5074432;28;20048;-78
2021/08/07 04:00:52;;;;;;;2.47;1.60;;;;;;;15.61;72.61;95852.72;5074566;28;20422;-78
2021/08/07 04:03:19;;;;;;;2.17;1.05;;;;;;;15.63;71.91;95854.09;5074348;28;20044;-78
2021/08/07 04:05:47;;;;;;;2.30;1.38;;;;;;;15.68;71.70;95861.28;5074194;28;20491;-78
2021/08/07 04:08:15;;;;;;;2.83;1.33;;;;;;;15.72;71.23;95853.75;5074321;28;20441;-78
2021/08/07 04:10:42;;;;;;;3.38;1.45;;;;;;;15.76;71.41;95854.88;5074263;28;20056;-78
2021/08/07 04:13:10;;;;;;;1.58;1.40;;;;;;;15.77;70.96;95841.50;5073831;28;20119;-78
2021/08/07 04:15:39;;;;;;;5.68;1.67;;;;;;;15.80;70.90;95838.41;5074181;28;20054;-78
2021/08/07 04:18:07;;;;;;;2.17;1.38;;;;;;;15.84;70.96;95836.13;5074157;28;20422;-78
2021/08/07 04:20:34;;;;;;;2.17;1.20;;;;;;;15.88;70.32;95844.34;5074254;28;20052;-78
2021/08/07 04:23:02;;;;;;;2.50;1.20;;;;;;;15.91;71.41;95839.41;5073782;28;20236;-77
2021/08/07 04:25:29;;;;;;;1.25;1.15;;;;;;;15.95;71.41;95831.84;5073898;28;20057;-78
2021/08/07 04:27:57;;;;;;;3.08;1.23;;;;;;;15.97;70.43;95837.69;5073733;28;20052;-78
2021/08/07 04:30:24;;;;;;;4.40;1.40;;;;;;;16.00;70.22;95826.69;5074052;28;20064;-78
2021/08/07 04:32:53;;;;;;;1.60;1.00;;;;;;;16.04;71.77;95830.44;5073889;28;20091;-78
2021/08/07 04:35:21;;;;;;;2.92;1.00;;;;;;;16.06;70.06;95831.00;5073681;28;20430;-78
2021/08/07 04:37:50;;;;;;;2.88;1.48;;;;;;;16.10;71.76;95836.63;5073654;28;20048;-78
2021/08/07 04:40:20;;;;;;;3.65;1.15;;;;;;;16.14;70.54;95837.75;5073642;28;20159;-78
2021/08/07 04:42:47;;;;;;;2.30;1.08;;;;;;;16.13;69.64;95833.50;5073306;28;20049;-79
2021/08/07 04:45:15;;;;;;;2.05;1.35;;;;;;;16.15;69.04;95831.44;5073477;28;20059;-78
2021/08/07 04:47:55;;;;;;;5.15;1.75;;;;;;;16.17;68.57;95848.59;5072598;28;20505;-78
2021/08/07 04:50:24;;;;;;;5.35;1.67;;;;;;;16.18;68.89;95842.31;5073593;28;20057;-78
2021/08/07 04:52:52;;;;;;;2.53;1.17;;;;;;;16.20;68.40;95842.03;5084609;28;20074;-78
2021/08/07 04:55:20;;;;;;;3.13;1.40;;;;;;;16.20;68.21;95836.78;5093712;28;20040;-78
2021/08/07 04:57:48;;;;;;;6.63;1.40;;;;;;;16.22;68.48;95834.72;5096524;28;20059;-77
2021/08/07 05:00:17;;;;;;;2.63;1.13;;;;;;;16.25;68.27;95834.25;5096168;28;20083;-77
2021/08/07 05:02:45;;;;;;;2.10;1.15;;;;;;;16.28;68.16;95834.56;5086363;28;20071;-79
2021/08/07 05:05:15;;;;;;;3.00;1.50;;;;;;;16.33;68.77;95819.91;5073747;28;20048;-78
2021/08/07 05:07:43;;;;;;;3.55;1.05;;;;;;;16.38;68.72;95823.44;5073351;28;20056;-77
2021/08/07 05:10:13;;;;;;;1.30;1.00;;;;;;;16.42;67.75;95824.56;5074126;28;20506;-78
2021/08/07 05:12:41;;;;;;;2.13;0.95;;;;;;;16.45;69.06;95818.81;5074577;28;20059;-78
2021/08/07 05:15:10;;;;;;;3.53;1.65;;;;;;;16.52;68.67;95823.13;5073394;28;20490;-78
2021/08/07 05:17:37;;;;;;;2.55;1.70;;;;;;;16.56;69.76;95832.94;5073427;28;20052;-78
2021/08/07 05:20:06;;;;;;;9.80;6.22;;;;;;;16.59;68.30;95834.28;5073752;28;20048;-78
2021/08/07 05:22:35;;;;;;;4.18;2.60;;;;;;;16.61;67.76;95834.84;5073645;28;20052;-79
2021/08/07 05:25:03;;;;;;;3.35;1.52;;;;;;;16.64;68.02;95829.13;5072965;28;20045;-78
2021/08/07 05:27:31;;;;;;;2.97;1.55;;;;;;;16.68;67.53;95827.59;5073163;28;20049;-78
2021/08/07 05:29:58;;;;;;;3.88;1.30;;;;;;;16.68;67.12;95815.25;5073387;28;20054;-78
2021/08/07 05:32:26;;;;;;;5.82;2.65;;;;;;;16.71;67.21;95821.88;5072579;28;20048;-78
2021/08/07 05:34:53;;;;;;;6.28;3.85;;;;;;;16.73;67.18;95814.53;5072957;28;20052;-78
2021/08/07 05:37:21;;;;;;;3.13;2.17;;;;;;;16.76;67.61;95818.50;5072934;28;20422;-78
2021/08/07 05:39:50;;;;;;;4.20;2.60;;;;;;;16.79;67.12;95818.84;5072854;28;20048;-78
2021/08/07 05:42:17;;;;;;;5.32;2.78;;;;;;;16.81;66.91;95818.59;5072193;28;20102;-78
2021/08/07 05:44:45;;;;;;;2.47;1.10;;;;;;;16.83;66.64;95800.72;5072385;28;20426;-78
2021/08/07 05:47:12;;;;;;;3.33;1.52;;;;;;;16.85;66.32;95799.44;5073126;28;20045;-78
2021/08/07 05:49:40;;;;;;;1.52;1.13;;;;;;;16.84;66.07;95800.50;5073089;28;20075;-77
2021/08/07 05:52:07;;;;;;;2.67;0.98;;;;;;;16.87;65.88;95807.13;5073166;28;20053;-78
2021/08/07 05:54:35;;;;;;;2.80;0.90;;;;;;;16.89;65.76;95808.47;5072502;28;20055;-78
2021/08/07 05:57:04;;;;;;;2.50;1.20;;;;;;;16.91;65.87;95808.25;5072634;28;20136;-79
2021/08/07 05:59:31;;;;;;;3.15;1.15;;;;;;;16.92;65.78;95811.66;5074732;28;20052;-78
2021/08/07 06:01:59;;;;;;;5.88;2.22;;;;;;;16.93;65.58;95818.53;5076484;28;20053;-78
2021/08/07 06:04:27;;;;;;;6.75;3.95;;;;;;;16.95;65.83;95816.47;5076281;28;20044;-78
2021/08/07 06:06:54;;;;;;;4.95;1.80;;;;;;;16.99;65.50;95822.81;5076759;28;20063;-78
2021/08/07 06:09:21;;;;;;;6.05;2.38;;;;;;;17.03;65.74;95819.50;5076775;28;20056;-78
2021/08/07 06:11:49;;;;;;;3.47;1.40;;;;;;;17.08;65.21;95827.47;5076423;28;20395;-78
2021/08/07 06:14:18;;;;;;;5.00;3.22;;;;;;;17.14;65.21;95822.25;5076157;28;20468;-80
2021/08/07 06:16:46;;;;;;;1.42;1.08;;;;;;;17.20;65.60;95822.09;5076639;28;20053;-78
2021/08/07 06:19:13;;;;;;;1.98;1.30;;;;;;;17.26;65.31;95825.59;5076351;28;20060;-79
2021/08/07 06:21:41;;;;;;;1.73;1.20;;;;;;;17.29;65.08;95818.00;5076465;28;20057;-78
2021/08/07 06:24:09;;;;;;;2.90;1.25;;;;;;;17.34;65.16;95811.19;5075950;28;20045;-76
2021/08/07 06:26:37;;;;;;;2.72;1.10;;;;;;;17.37;65.14;95805.44;5076148;28;20339;-79
2021/08/07 06:29:05;;;;;;;4.43;1.70;;;;;;;17.39;65.12;95800.72;5076241;28;20230;-78
2021/08/07 06:31:34;;;;;;;6.68;4.45;;;;;;;17.41;64.68;95790.75;5076131;28;20045;-78
2021/08/07 06:34:02;;;;;;;2.03;1.38;;;;;;;17.45;64.34;95805.81;5075824;28;20045;-79
2021/08/07 06:36:30;;;;;;;2.92;1.42;;;;;;;17.52;65.43;95810.91;5075790;28;20468;-78
2021/08/07 06:38:57;;;;;;;3.28;1.45;;;;;;;17.57;64.75;95813.59;5075733;28;20052;-78
2021/08/07 06:41:25;;;;;;;1.95;1.23;;;;;;;17.61;64.26;95819.19;5075703;28;20048;-77
2021/08/07 06:43:52;;;;;;;2.85;1.45;;;;;;;17.64;64.20;95814.22;5075613;28;20449;-78
2021/08/07 06:46:20;;;;;;;4.20;1.05;;;;;;;17.66;64.00;95817.41;5075457;28;20044;-78
2021/08/07 06:48:49;;;;;;;0.90;0.80;;;;;;;17.69;64.44;95819.56;5075670;28;20051;-78
2021/08/07 06:51:16;;;;;;;1.77;1.00;;;;;;;17.74;64.00;95820.66;5075205;28;20061;-78
2021/08/07 06:53:46;;;;;;;3.15;1.15;;;;;;;17.78;63.79;95830.47;5074976;28;20056;-78
2021/08/07 06:56:13;;;;;;;1.55;1.00;;;;;;;17.85;63.44;95827.69;5075570;28;20055;-78
2021/08/07 06:58:41;;;;;;;1.83;1.08;;;;;;;17.94;63.09;95823.56;5075596;28;20048;-78
2021/08/07 07:01:08;;;;;;;5.40;1.33;;;;;;;18.02;62.85;95827.63;5075538;28;20052;-78
2021/08/07 07:03:36;;;;;;;2.58;1.00;;;;;;;18.10;62.82;95820.06;5075498;28;20064;-78
2021/08/07 07:06:06;;;;;;;1.25;1.15;;;;;;;18.22;62.38;95819.09;5075788;28;20053;-78
2021/08/07 07:08:33;;;;;;;1.98;0.95;;;;;;;18.33;62.04;95828.72;5075255;28;20414;-78
2021/08/07 07:11:01;;;;;;;3.42;1.20;;;;;;;18.43;61.35;95833.28;5074741;28;20044;-78
2021/08/07 07:13:28;;;;;;;2.40;1.23;;;;;;;18.52;61.12;95829.16;5075090;28;20048;-78
2021/08/07 07:15:55;;;;;;;2.13;1.15;;;;;;;18.61;60.55;95834.78;5075224;28;20045;-78
2021/08/07 07:18:23;;;;;;;1.15;0.93;;;;;;;18.68;60.40;95825.59;5075173;28;20040;-78
2021/08/07 07:20:51;;;;;;;2.47;1.10;;;;;;;18.79;59.97;95829.16;5075088;28;20449;-78
2021/08/07 07:23:19;;;;;;;1.65;0.80;;;;;;;18.90;59.25;95817.59;5074566;28;20494;-78
2021/08/07 07:25:49;;;;;;;1.83;0.80;;;;;;;18.99;59.42;95809.19;5075176;28;20055;-78
2021/08/07 07:28:16;;;;;;;1.30;0.88;;;;;;;19.11;59.76;95799.22;5074917;28;20055;-79
2021/08/07 07:30:44;;;;;;;2.00;0.75;;;;;;;19.22;58.96;95795.59;5074727;28;20052;-78
2021/08/07 07:33:12;;;;;;;3.88;1.50;;;;;;;19.31;58.70;95794.06;5074492;28;20529;-78
2021/08/07 07:35:39;;;;;;;2.47;0.93;;;;;;;19.41;58.23;95803.09;5075004;28;20083;-78
2021/08/07 07:38:07;;;;;;;8.93;0.98;;;;;;;19.49;58.18;95794.69;5075049;28;20049;-78
2021/08/07 07:40:36;;;;;;;1.20;0.90;;;;;;;19.59;58.02;95789.44;5074638;28;20045;-78
2021/08/07 07:43:04;;;;;;;0.80;0.70;;;;;;;19.69;57.65;95784.19;5078732;22;20503;-76
2021/08/07 07:45:31;;;;;;;1.60;0.90;;;;;;;19.79;57.50;95780.81;5053699;28;20495;-76
2021/08/07 07:47:59;;;;;;;2.47;0.77;;;;;;;19.88;56.95;95781.09;5054246;28;20056;-76
2021/08/07 07:50:26;;;;;;;1.27;0.85;;;;;;;19.98;57.82;95764.44;5053908;28;20076;-76
2021/08/07 07:52:54;;;;;;;1.77;1.10;;;;;;;20.09;57.17;95764.19;5054003;28;20426;-76
2021/08/07 07:55:21;;;;;;;1.45;0.80;;;;;;;20.21;58.42;95766.59;5061760;28;20491;-76
2021/08/07 07:57:50;;;;;;;0.95;0.73;;;;;;;20.28;57.00;95776.94;5060976;28;20045;-76
2021/08/07 08:00:18;;;;;;;2.08;1.00;;;;;;;20.34;58.03;95767.94;5061006;28;20200;-77
2021/08/07 08:02:45;;;;;;;1.35;1.00;;;;;;;20.40;57.05;95781.97;5056489;28;20052;-77
2021/08/07 08:05:13;;;;;;;2.22;1.02;;;;;;;20.46;56.56;95789.66;5053669;28;20049;-76
2021/08/07 08:07:41;;;;;;;1.73;0.90;;;;;;;20.55;57.81;95796.03;5053365;28;20045;-76
2021/08/07 08:10:11;;;;;;;2.38;1.45;;;;;;;20.65;58.04;95802.41;5053322;28;20079;-77
2021/08/07 08:12:38;;;;;;;4.78;1.23;;;;;;;20.73;56.26;95804.53;5053016;28;20064;-76
2021/08/07 08:15:08;;;;;;;1.60;0.80;;;;;;;20.78;57.17;95815.13;5053323;28;20049;-77
2021/08/07 08:17:36;;;;;;;3.92;1.05;;;;;;;20.82;56.30;95816.19;5053446;28;20044;-76
2021/08/07 08:20:05;;;;;;;4.10;0.93;;;;;;;20.86;56.31;95819.91;5053129;28;20510;-76
2021/08/07 08:22:32;;;;;;;3.00;0.80;;;;;;;20.90;58.25;95812.19;5052833;28;20049;-77
2021/08/07 08:25:01;;;;;;;8.18;1.33;;;;;;;20.91;56.33;95817.25;5052973;28;20079;-76
2021/08/07 08:27:29;;;;;;;4.50;0.90;;;;;;;20.89;57.36;95806.09;5053296;28;20052;-76
2021/08/07 08:29:58;;;;;;;1.80;0.80;;;;;;;20.87;56.21;95808.22;5053098;28;20060;-76
2021/08/07 08:32:27;;;;;;;2.20;1.00;;;;;;;20.87;56.06;95802.94;5052669;28;20048;-77
2021/08/07 08:34:54;;;;;;;3.42;2.22;;;;;;;20.88;56.12;95796.59;5052867;28;20061;-76
2021/08/07 08:37:22;;;;;;;2.92;1.20;;;;;;;20.89;56.07;95786.75;5052878;28;20494;-77
2021/08/07 08:39:50;;;;;;;3.15;1.10;;;;;;;20.92;56.23;95778.28;5052899;28;20418;-77
2021/08/07 08:42:18;;;;;;;1.40;0.80;;;;;;;20.97;56.83;95776.41;5052523;28;20056;-77
2021/08/07 08:44:46;;;;;;;3.97;1.52;;;;;;;21.04;56.76;95773.50;5052658;28;20053;-77
2021/08/07 08:47:14;;;;;;;1.85;1.17;;;;;;;21.10;57.26;95763.66;5065176;28;20049;-77
2021/08/07 08:49:45;;;;;;;1.23;0.88;;;;;;;21.15;56.17;95748.53;5070470;28;20537;-77
2021/08/07 08:52:15;;;;;;;2.30;1.15;;;;;;;21.22;56.40;95734.19;5070145;28;20048;-77
2021/08/07 08:54:43;;;;;;;1.58;1.10;;;;;;;21.30;56.31;95731.78;5053559;28;20060;-77
2021/08/07 08:57:10;;;;;;;2.50;1.38;;;;;;;21.36;55.84;95729.88;5052714;28;20057;-77
2021/08/07 08:59:38;;;;;;;2.55;1.40;;;;;;;21.42;56.45;95728.84;5052642;28;20499;-77
2021/08/07 09:02:05;;;;;;;1.55;1.13;;;;;;;21.50;55.72;95730.13;5052410;28;20052;-77
2021/08/07 09:04:33;;;;;;;5.85;1.40;;;;;;;21.56;56.44;95735.16;5052127;28;20051;-77
2021/08/07 09:07:02;;;;;;;2.35;1.05;;;;;;;21.62;55.53;95735.13;5052519;28;20091;-77
2021/08/07 09:09:37;;;;;;;2.65;1.38;;;;;;;21.66;55.93;95721.03;5052192;28;20056;-77
2021/08/07 09:12:06;;;;;;;2.08;1.13;;;;;;;21.71;56.83;95726.31;5052000;28;20520;-76
2021/08/07 09:14:36;;;;;;;3.33;1.15;;;;;;;21.77;55.94;95730.50;5051941;28;20053;-77
2021/08/07 09:17:10;;;;;;;6.32;1.60;;;;;;;21.82;55.28;95727.03;5052389;28;20053;-77
2021/08/07 09:19:52;;;;;;;4.25;1.77;;;;;;;21.86;54.97;95729.94;5051968;28;20523;-76
2021/08/07 09:22:23;;;;;;;4.90;1.60;;;;;;;21.86;55.09;95727.28;5051998;28;20469;-76
2021/08/07 09:24:57;;;;;;;2.45;1.42;;;;;;;21.92;54.85;95720.88;5052449;28;20049;-77
2021/08/07 09:27:30;;;;;;;3.25;1.92;;;;;;;22.03;55.22;95717.09;5052237;28;20055;-77
2021/08/07 09:29:58;;;;;;;2.05;1.30;;;;;;;22.17;55.87;95712.75;5052203;28;20049;-76
2021/08/07 09:32:26;;;;;;;2.08;1.38;;;;;;;22.29;55.53;95712.41;5051847;28;20248;-77
2021/08/07 09:35:08;;;;;;;1.98;1.25;;;;;;;22.36;54.07;95712.09;5051710;28;20057;-76
2021/08/07 09:37:37;;;;;;;;;;;;;;;22.35;52.81;95700.69;5052303;28;20051;-77
2021/08/07 09:40:07;;;;;;;3.40;1.10;;;;;;;22.30;54.12;95711.38;5051810;28;19967;-77
2021/08/07 09:42:49;;;;;;;2.33;1.10;;;;;;;22.26;53.13;95698.88;5051663;28;20049;-77
2021/08/07 09:45:16;;;;;;;1.88;1.15;;;;;;;22.19;53.28;95710.63;5052140;28;20426;-77
2021/08/07 09:47:56;;;;;;;3.67;1.30;;;;;;;22.15;53.77;95698.97;5051917;28;20052;-77
2021/08/07 09:50:25;;;;;;;3.10;1.20;;;;;;;22.11;54.53;95697.91;5051741;28;20049;-77
2021/08/07 09:52:54;;;;;;;1.65;1.30;;;;;;;22.07;54.89;95696.88;5051636;28;20103;-77
2021/08/07 09:55:22;;;;;;;1.73;1.30;;;;;;;22.05;54.64;95690.28;5052009;28;20045;-76
2021/08/07 09:58:01;;;;;;;1.27;1.15;;;;;;;22.01;55.25;95703.28;5052158;28;20053;-77
2021/08/07 10:00:37;;;;;;;5.63;1.38;;;;;;;21.97;56.54;95696.94;5051756;28;20068;-77
2021/08/07 10:03:16;;;;;;;3.42;1.45;;;;;;;21.92;55.31;95704.97;5051375;28;20056;-77
2021/08/07 10:05:44;;;;;;;3.22;1.48;;;;;;;21.86;56.09;95706.84;5051477;28;20565;-76
2021/08/07 10:08:13;;;;;;;3.30;1.52;;;;;;;21.82;55.16;95700.50;5051617;28;20045;-76
2021/08/07 10:10:43;;;;;;;3.63;1.30;;;;;;;21.78;54.60;95700.25;5051559;28;20422;-76
2021/08/07 10:13:12;;;;;;;1.65;1.42;;;;;;;21.74;56.50;95715.16;5051299;28;20052;-77
2021/08/07 10:15:41;;;;;;;3.25;1.30;;;;;;;21.70;56.05;95716.75;5051699;28;20052;-77
2021/08/07 10:18:10;;;;;;;2.20;1.30;;;;;;;21.66;56.37;95729.00;5051832;28;20136;-77
2021/08/07 10:20:39;;;;;;;1.77;1.17;;;;;;;21.62;56.49;95733.25;5051482;28;20076;-77
2021/08/07 10:23:07;;;;;;;2.67;1.13;;;;;;;21.58;57.25;95740.16;5051328;28;20049;-76
2021/08/07 10:25:44;;;;;;;3.70;1.98;;;;;;;21.56;57.56;95750.28;5051469;28;20055;-77
2021/08/07 10:28:13;;;;;;;2.08;1.15;;;;;;;21.52;57.48;95759.84;5051724;28;20056;-77
2021/08/07 10:30:44;;;;;;;2.47;1.35;;;;;;;21.49;57.76;95760.38;5051590;28;20523;-77
2021/08/07 10:33:13;;;;;;;4.32;1.40;;;;;;;21.42;57.76;95767.84;5051851;28;20052;-77
2021/08/07 10:35:42;;;;;;;3.78;1.30;;;;;;;21.34;58.27;95763.84;5051676;28;20056;-77
2021/08/07 10:38:10;;;;;;;2.03;1.30;;;;;;;21.35;58.67;95763.59;5051588;28;20049;-76
2021/08/07 10:40:39;;;;;;;1.52;1.27;;;;;;;21.33;59.29;95760.41;5051760;28;20041;-77
2021/08/07 10:43:07;;;;;;;2.67;1.60;;;;;;;21.34;59.40;95758.53;5051131;28;20049;-77
2021/08/07 10:45:35;;;;;;;4.38;1.63;;;;;;;21.35;60.09;95766.22;5051928;28;20049;-76
2021/08/07 10:48:02;;;;;;;1.75;1.45;;;;;;;21.34;59.51;95759.34;5055368;28;20059;-77
2021/08/07 10:50:38;;;;;;;4.28;1.40;;;;;;;21.34;61.33;95755.88;5055033;28;20045;-77
2021/08/07 10:53:22;;;;;;;2.95;1.20;;;;;;;21.32;60.51;95750.88;5054829;28;20064;-77
2021/08/07 10:55:53;;;;;;;3.33;1.60;;;;;;;21.31;61.32;95743.97;5042147;28;20053;-77
2021/08/07 10:58:35;;;;;;;1.55;1.27;;;;;;;21.28;60.06;95744.50;5054694;28;20526;-77
2021/08/07 11:01:26;;;;;;;4.35;2.10;;;;;;;21.23;60.41;95747.19;5054854;28;20521;-77
2021/08/07 11:04:15;;;;;;;2.60;1.75;;;;;;;21.20;61.70;95751.16;5054770;28;20099;-77
2021/08/07 11:06:52;;;;;;;1.85;1.52;;;;;;;21.20;61.45;95750.38;5054453;28;20045;-77
2021/08/07 11:09:24;;;;;;;2.22;1.48;;;;;;;21.19;62.08;95752.22;5054471;28;20060;-77
2021/08/07 11:12:21;;;;;;;2.35;1.55;;;;;;;21.20;61.60;95747.72;5054353;28;20072;-76
2021/08/07 11:14:51;;;;;;;2.85;1.30;;;;;;;21.18;60.78;95745.31;5054448;28;20049;-77
2021/08/07 11:17:33;;;;;;;3.35;1.40;;;;;;;21.18;61.46;95744.53;5054429;28;20048;-77
2021/08/07 11:20:06;;;;;;;4.07;1.58;;;;;;;21.16;61.93;95741.34;5054293;28;20052;-77
2021/08/07 11:23:07;;;;;;;3.00;1.73;;;;;;;21.16;62.10;95739.50;5054104;28;20053;-77
2021/08/07 11:25:55;;;;;;;2.13;1.48;;;;;;;21.15;62.75;95745.88;5054387;28;20049;-77
2021/08/07 11:28:24;;;;;;;2.65;1.60;;;;;;;21.12;62.33;95751.72;5053998;28;20059;-77
2021/08/07 11:31:13;;;;;;;3.30;1.83;;;;;;;21.06;62.46;95758.09;5054178;28;20048;-76
2021/08/07 11:33:41;;;;;;;1.95;1.50;;;;;;;21.01;62.77;95765.25;5053974;28;20088;-77
2021/08/07 11:36:11;;;;;;;1.92;1.40;;;;;;;20.98;62.41;95790.47;5054113;28;20049;-77
2021/08/07 11:38:58;;;;;;;3.42;1.40;;;;;;;20.93;61.07;95807.16;5054106;28;20136;-77
2021/08/07 11:41:39;;;;;;;1.67;1.20;;;;;;;20.91;61.61;95813.81;5053904;28;20404;-76
2021/08/07 11:44:08;;;;;;;0.90;0.90;;;;;;;20.88;61.41;95812.50;5053773;28;20127;-77
2021/08/07 11:46:41;;;;;;;1.85;1.10;;;;;;;20.87;61.03;95794.97;5053874;28;20068;-76